Time;durP1;ratioP1;P1;durP2;ratioP2;P2;SDS_P1;SDS_P2;PMS_P1;PMS_P2;Temp;Humidity;BMP_temperature;BMP_pressure;BME280_temperature;BME280_humidity;BME280_pressure;Samples;Min_cycle;Max_cycle;Signal;HPM_P1;HPM_P2
2023/05/29 00:00:29;;;;;;;4.43;2.60;;;;;;;;;;4985296;28;20026;-46
2023/05/29 00:02:54;;;;;;;6.97;3.00;;;;;;;;;;4984070;28;20097;-50
2023/05/29 00:05:19;;;;;;;4.60;2.72;;;;;;;;;;4983611;28;20034;-48
2023/05/29 00:07:45;;;;;;;5.68;2.55;;;;;;;;;;4983274;28;20443;-53
2023/05/29 00:10:11;;;;;;;3.47;2.45;;;;;;;;;;4983106;28;20699;-50
2023/05/29 00:12:38;;;;;;;4.72;2.80;;;;;;;;;;4984750;28;20455;-45
2023/05/29 00:15:05;;;;;;;4.57;2.40;;;;;;;;;;4982752;28;20030;-46
2023/05/29 00:17:34;;;;;;;6.05;2.97;;;;;;;;;;4977122;28;20710;-49
2023/05/29 00:20:01;;;;;;;2.90;2.67;;;;;;;;;;4984226;28;20022;-45
2023/05/29 00:22:27;;;;;;;3.25;2.72;;;;;;;;;;4985040;28;20110;-46
2023/05/29 00:24:52;;;;;;;3.47;2.45;;;;;;;;;;4983461;28;20039;-45
2023/05/29 00:27:17;;;;;;;7.05;2.97;;;;;;;;;;4981693;28;20051;-46
2023/05/29 00:29:43;;;;;;;3.20;2.45;;;;;;;;;;4980526;28;20527;-44
2023/05/29 00:32:09;;;;;;;10.02;3.55;;;;;;;;;;4984380;28;20043;-47
2023/05/29 00:34:35;;;;;;;6.97;2.67;;;;;;;;;;4982667;28;20022;-51
2023/05/29 00:37:01;;;;;;;6.13;2.83;;;;;;;;;;4981430;28;20042;-50
2023/05/29 00:39:26;;;;;;;6.68;3.53;;;;;;;;;;4981901;28;20431;-52
2023/05/29 00:41:52;;;;;;;4.45;2.80;;;;;;;;;;4984685;28;20051;-53
2023/05/29 00:44:21;;;;;;;4.32;2.78;;;;;;;;;;4983459;28;20035;-51
2023/05/29 00:46:48;;;;;;;3.85;2.45;;;;;;;;;;4980048;28;20444;-56
2023/05/29 00:49:14;;;;;;;7.28;2.85;;;;;;;;;;4981731;28;20035;-45
2023/05/29 00:51:41;;;;;;;2.83;2.42;;;;;;;;;;4981502;28;20066;-46
2023/05/29 00:54:07;;;;;;;8.98;2.95;;;;;;;;;;4981380;28;20035;-50
2023/05/29 00:56:34;;;;;;;4.13;2.97;;;;;;;;;;4983866;28;20050;-48
2023/05/29 00:59:00;;;;;;;4.57;2.70;;;;;;;;;;4981487;28;20113;-52
2023/05/29 01:01:26;;;;;;;4.15;2.50;;;;;;;;;;4984017;28;20125;-47
2023/05/29 01:03:57;;;;;;;4.78;2.78;;;;;;;;;;4986193;28;20026;-52
2023/05/29 01:06:23;;;;;;;3.40;2.53;;;;;;;;;;4982757;28;20039;-51
2023/05/29 01:08:48;;;;;;;8.13;2.53;;;;;;;;;;4976774;28;20030;-49
2023/05/29 01:11:45;;;;;;;3.42;3.08;;;;;;;;;;4978317;28;20047;-49
2023/05/29 01:14:29;;;;;;;5.65;2.63;;;;;;;;;;4983153;28;20080;-46
2023/05/29 01:17:03;;;;;;;5.47;2.60;;;;;;;;;;4981729;28;20038;-49
2023/05/29 01:19:56;;;;;;;6.82;2.63;;;;;;;;;;4981820;28;20034;-53
2023/05/29 01:22:35;;;;;;;3.55;2.67;;;;;;;;;;4984664;28;20038;-46
2023/05/29 01:25:03;;;;;;;4.90;2.85;;;;;;;;;;4980889;28;20101;-51
2023/05/29 01:27:30;;;;;;;3.72;2.83;;;;;;;;;;4981719;28;20050;-45
2023/05/29 01:29:57;;;;;;;4.20;2.78;;;;;;;;;;4980321;28;20061;-49
2023/05/29 01:32:25;;;;;;;7.35;3.22;;;;;;;;;;4981238;28;20052;-46
2023/05/29 01:34:51;;;;;;;3.72;2.47;;;;;;;;;;4982975;28;20057;-53
2023/05/29 01:37:16;;;;;;;5.10;2.85;;;;;;;;;;4986576;28;20499;-50
2023/05/29 01:39:42;;;;;;;4.35;2.58;;;;;;;;;;4982215;28;20506;-51
2023/05/29 01:42:08;;;;;;;3.88;2.63;;;;;;;;;;4974339;28;20121;-52
2023/05/29 01:44:34;;;;;;;5.68;2.72;;;;;;;;;;4979418;28;20026;-51
2023/05/29 01:47:00;;;;;;;3.05;2.50;;;;;;;;;;4983209;28;20039;-52
2023/05/29 01:49:27;;;;;;;6.25;2.78;;;;;;;;;;4987238;28;20030;-53
2023/05/29 01:51:53;;;;;;;6.22;3.28;;;;;;;;;;4986280;28;20046;-51
2023/05/29 01:54:18;;;;;;;4.40;2.85;;;;;;;;;;4985221;28;20041;-45
2023/05/29 01:56:44;;;;;;;5.55;2.67;;;;;;;;;;4984387;28;20038;-46
2023/05/29 01:59:11;;;;;;;4.82;2.70;;;;;;;;;;4986788;28;20047;-45
2023/05/29 02:01:38;;;;;;;2.75;2.38;;;;;;;;;;4988269;28;20046;-44
2023/05/29 02:04:04;;;;;;;5.13;2.40;;;;;;;;;;4985820;28;20030;-46
2023/05/29 02:06:30;;;;;;;3.42;2.20;;;;;;;;;;4985004;28;20200;-47
2023/05/29 02:08:56;;;;;;;2.60;2.40;;;;;;;;;;4984271;28;20392;-46
2023/05/29 02:11:21;;;;;;;9.82;2.85;;;;;;;;;;4976428;28;20102;-47
2023/05/29 02:13:47;;;;;;;7.10;2.60;;;;;;;;;;4983722;28;20480;-43
2023/05/29 02:16:12;;;;;;;4.80;2.40;;;;;;;;;;4982214;28;20039;-44
2023/05/29 02:18:38;;;;;;;3.78;2.60;;;;;;;;;;4982438;28;20062;-46
2023/05/29 02:21:04;;;;;;;4.85;2.45;;;;;;;;;;4988215;28;20108;-44
2023/05/29 02:23:29;;;;;;;3.95;2.30;;;;;;;;;;4985574;28;20058;-44
2023/05/29 02:25:55;;;;;;;2.47;2.22;;;;;;;;;;4983740;28;20391;-44
2023/05/29 02:28:20;;;;;;;4.13;2.50;;;;;;;;;;4988608;28;20032;-43
2023/05/29 02:30:45;;;;;;;5.07;2.75;;;;;;;;;;4982044;28;20129;-45
2023/05/29 02:33:11;;;;;;;4.75;2.65;;;;;;;;;;4987379;28;20365;-44
2023/05/29 02:35:36;;;;;;;2.47;2.28;;;;;;;;;;4985148;28;20113;-45
2023/05/29 02:38:01;;;;;;;4.05;2.50;;;;;;;;;;4985833;28;20029;-47
2023/05/29 02:40:27;;;;;;;6.35;2.47;;;;;;;;;;4979981;28;20038;-47
2023/05/29 02:42:52;;;;;;;8.55;2.35;;;;;;;;;;4985666;28;20798;-45
2023/05/29 02:45:18;;;;;;;4.57;2.70;;;;;;;;;;4983103;28;20118;-46
2023/05/29 02:47:43;;;;;;;6.97;2.67;;;;;;;;;;4986131;28;20066;-45
2023/05/29 02:50:09;;;;;;;4.35;2.75;;;;;;;;;;4983296;28;20428;-44
2023/05/29 02:52:36;;;;;;;5.40;2.50;;;;;;;;;;4985804;28;20050;-43
2023/05/29 02:55:02;;;;;;;4.53;2.53;;;;;;;;;;4983397;28;20034;-44
2023/05/29 02:57:27;;;;;;;4.30;2.47;;;;;;;;;;4984296;28;20026;-46
2023/05/29 02:59:52;;;;;;;2.97;2.75;;;;;;;;;;4982998;28;20018;-49
2023/05/29 03:02:18;;;;;;;6.88;2.45;;;;;;;;;;4983689;28;20061;-46
2023/05/29 03:04:44;;;;;;;5.82;2.42;;;;;;;;;;4988820;28;20030;-44
2023/05/29 03:07:10;;;;;;;4.45;2.70;;;;;;;;;;4985088;28;20259;-49
2023/05/29 03:09:35;;;;;;;2.55;2.03;;;;;;;;;;4982409;28;20427;-46
2023/05/29 03:12:01;;;;;;;6.10;2.45;;;;;;;;;;4982361;28;20034;-46
2023/05/29 03:14:27;;;;;;;4.32;2.80;;;;;;;;;;4984587;28;20125;-44
2023/05/29 03:16:53;;;;;;;2.55;2.13;;;;;;;;;;4983517;28;20397;-44
2023/05/29 03:19:19;;;;;;;2.70;2.50;;;;;;;;;;4984307;28;20466;-45
2023/05/29 03:21:45;;;;;;;2.53;2.22;;;;;;;;;;4985171;28;20106;-45
2023/05/29 03:24:10;;;;;;;3.40;2.47;;;;;;;;;;4986809;28;20049;-46
2023/05/29 03:26:36;;;;;;;10.18;2.20;;;;;;;;;;4982868;28;20058;-48
2023/05/29 03:29:02;;;;;;;4.95;2.85;;;;;;;;;;4980019;28;20030;-45
2023/05/29 03:31:27;;;;;;;2.90;2.13;;;;;;;;;;4981808;28;20116;-46
2023/05/29 03:33:53;;;;;;;5.57;2.58;;;;;;;;;;4979796;28;20468;-44
2023/05/29 03:36:18;;;;;;;6.30;2.50;;;;;;;;;;4984274;28;20061;-44
2023/05/29 03:38:44;;;;;;;3.72;2.42;;;;;;;;;;4985967;28;20089;-45
2023/05/29 03:41:10;;;;;;;2.80;2.47;;;;;;;;;;4981107;28;20066;-44
2023/05/29 03:43:36;;;;;;;2.75;2.53;;;;;;;;;;4981796;28;20026;-46
2023/05/29 03:46:01;;;;;;;8.23;3.05;;;;;;;;;;4985606;28;20038;-46
2023/05/29 03:48:27;;;;;;;5.80;2.80;;;;;;;;;;4985610;28;20062;-45
2023/05/29 03:50:52;;;;;;;5.35;2.63;;;;;;;;;;4983217;28;20488;-44
2023/05/29 03:53:17;;;;;;;4.68;2.80;;;;;;;;;;4982116;28;20030;-44
2023/05/29 03:55:43;;;;;;;3.38;2.38;;;;;;;;;;4982885;28;20035;-45
2023/05/29 03:58:08;;;;;;;2.85;2.60;;;;;;;;;;4981906;28;20093;-47
2023/05/29 04:00:33;;;;;;;4.32;2.28;;;;;;;;;;4978345;28;20046;-43
2023/05/29 04:02:59;;;;;;;5.85;2.40;;;;;;;;;;4985305;28;20027;-47
2023/05/29 04:05:25;;;;;;;4.00;2.40;;;;;;;;;;4985042;28;20030;-44
2023/05/29 04:07:52;;;;;;;4.60;2.40;;;;;;;;;;4985094;28;20391;-43
2023/05/29 04:10:17;;;;;;;5.78;2.53;;;;;;;;;;4981579;28;20561;-44
2023/05/29 04:12:43;;;;;;;2.92;2.47;;;;;;;;;;4983475;28;20038;-44
2023/05/29 04:15:09;;;;;;;5.28;2.67;;;;;;;;;;4980153;28;20118;-43
2023/05/29 04:17:34;;;;;;;2.45;2.25;;;;;;;;;;4983858;28;20129;-46
2023/05/29 04:20:03;;;;;;;6.53;2.33;;;;;;;;;;4981864;28;20042;-49
2023/05/29 04:22:28;;;;;;;3.88;2.50;;;;;;;;;;4985386;28;20042;-45
2023/05/29 04:24:54;;;;;;;4.88;2.53;;;;;;;;;;4978987;28;20022;-43
2023/05/29 04:27:19;;;;;;;3.53;2.22;;;;;;;;;;4983482;28;20078;-44
2023/05/29 04:29:45;;;;;;;3.95;2.28;;;;;;;;;;4983141;28;20026;-46
2023/05/29 04:32:11;;;;;;;4.15;2.38;;;;;;;;;;4982436;28;20053;-43
2023/05/29 04:34:38;;;;;;;2.40;2.20;;;;;;;;;;4982264;28;20427;-43
2023/05/29 04:37:04;;;;;;;4.93;2.53;;;;;;;;;;4981283;28;20495;-44
2023/05/29 04:39:30;;;;;;;5.00;2.50;;;;;;;;;;4982660;28;20045;-44
2023/05/29 04:41:58;;;;;;;2.67;2.30;;;;;;;;;;4984599;28;20053;-44
2023/05/29 04:44:25;;;;;;;5.35;2.45;;;;;;;;;;4981787;28;20022;-49
2023/05/29 04:46:51;;;;;;;5.20;2.70;;;;;;;;;;4982129;28;20463;-44
2023/05/29 04:49:17;;;;;;;2.63;2.42;;;;;;;;;;4982972;28;20510;-44
2023/05/29 04:51:42;;;;;;;2.60;2.40;;;;;;;;;;4980082;28;20042;-43
2023/05/29 04:54:09;;;;;;;7.20;2.50;;;;;;;;;;4983345;28;20034;-45
2023/05/29 04:56:35;;;;;;;4.25;2.58;;;;;;;;;;4983839;28;20050;-49
2023/05/29 04:59:00;;;;;;;5.40;2.67;;;;;;;;;;4982443;28;20038;-45
2023/05/29 05:01:26;;;;;;;4.63;2.67;;;;;;;;;;4979776;28;20114;-49
2023/05/29 05:03:57;;;;;;;5.38;2.92;;;;;;;;;;4985151;28;20026;-44
2023/05/29 05:06:25;;;;;;;6.22;2.63;;;;;;;;;;4981220;28;22592;-46
2023/05/29 05:08:51;;;;;;;6.80;2.50;;;;;;;;;;4983623;28;20042;-43
2023/05/29 05:11:17;;;;;;;4.13;2.40;;;;;;;;;;4980178;28;20081;-45
2023/05/29 05:13:43;;;;;;;11.38;2.70;;;;;;;;;;4984971;28;20034;-50
2023/05/29 05:16:08;;;;;;;3.55;2.47;;;;;;;;;;4983929;28;20399;-45
2023/05/29 05:18:33;;;;;;;5.25;2.33;;;;;;;;;;4982853;28;20476;-47
2023/05/29 05:20:59;;;;;;;3.63;2.63;;;;;;;;;;4979023;28;20108;-44
2023/05/29 05:23:25;;;;;;;3.88;2.53;;;;;;;;;;4984234;28;20022;-44
2023/05/29 05:25:50;;;;;;;8.20;2.70;;;;;;;;;;4987875;28;20442;-43
2023/05/29 05:28:15;;;;;;;2.75;2.40;;;;;;;;;;4987557;28;20030;-43
2023/05/29 05:30:41;;;;;;;6.82;2.42;;;;;;;;;;4984833;28;20043;-43
2023/05/29 05:33:07;;;;;;;5.38;2.97;;;;;;;;;;4984879;28;20026;-44
2023/05/29 05:35:33;;;;;;;7.65;3.00;;;;;;;;;;4985381;28;20502;-49
2023/05/29 05:37:58;;;;;;;4.22;2.03;;;;;;;;;;4981671;28;20106;-49
2023/05/29 05:40:25;;;;;;;3.33;2.45;;;;;;;;;;4987371;28;20039;-44
2023/05/29 05:42:51;;;;;;;3.70;2.45;;;;;;;;;;4986953;28;20041;-51
2023/05/29 05:45:16;;;;;;;2.88;2.28;;;;;;;;;;4986249;28;20030;-47
2023/05/29 05:47:42;;;;;;;4.20;2.45;;;;;;;;;;4987088;28;20403;-50
2023/05/29 05:50:08;;;;;;;4.05;2.40;;;;;;;;;;4985165;28;20117;-48
2023/05/29 05:52:33;;;;;;;7.97;2.55;;;;;;;;;;4983435;28;20046;-47
2023/05/29 05:54:59;;;;;;;3.42;2.20;;;;;;;;;;4985709;28;20442;-50
2023/05/29 05:57:25;;;;;;;4.55;2.20;;;;;;;;;;4980561;28;20520;-43
2023/05/29 05:59:50;;;;;;;2.78;2.28;;;;;;;;;;4985674;28;20030;-49
2023/05/29 06:02:16;;;;;;;8.60;2.60;;;;;;;;;;4985227;28;20408;-50
2023/05/29 06:04:41;;;;;;;3.10;2.22;;;;;;;;;;4986027;28;20032;-46
2023/05/29 06:07:07;;;;;;;2.70;2.28;;;;;;;;;;4985352;28;20081;-47
2023/05/29 06:09:32;;;;;;;4.45;2.35;;;;;;;;;;4986525;28;20038;-44
2023/05/29 06:11:58;;;;;;;2.42;2.15;;;;;;;;;;4986370;28;20081;-45
2023/05/29 06:14:24;;;;;;;3.10;2.67;;;;;;;;;;4985724;28;20034;-46
2023/05/29 06:16:50;;;;;;;5.32;3.60;;;;;;;;;;4984355;28;20046;-50
2023/05/29 06:19:16;;;;;;;4.53;2.45;;;;;;;;;;4985725;28;20026;-49
2023/05/29 06:21:41;;;;;;;6.18;2.13;;;;;;;;;;4983486;28;20042;-43
2023/05/29 06:24:06;;;;;;;3.72;2.60;;;;;;;;;;4984372;28;20058;-44
2023/05/29 06:26:32;;;;;;;3.28;2.50;;;;;;;;;;4985624;28;20042;-43
2023/05/29 06:28:58;;;;;;;6.82;2.38;;;;;;;;;;4987418;28;20026;-43
2023/05/29 06:31:23;;;;;;;2.70;2.50;;;;;;;;;;4984388;28;20057;-50
2023/05/29 06:33:48;;;;;;;4.30;2.40;;;;;;;;;;4981829;28;20030;-48
2023/05/29 06:36:14;;;;;;;3.42;2.20;;;;;;;;;;4984405;28;20038;-47
2023/05/29 06:38:39;;;;;;;3.95;2.40;;;;;;;;;;4984367;28;20448;-48
2023/05/29 06:41:05;;;;;;;3.60;2.15;;;;;;;;;;4983944;28;20039;-50
2023/05/29 06:43:30;;;;;;;2.72;2.47;;;;;;;;;;4983223;28;20105;-47
2023/05/29 06:45:56;;;;;;;3.80;2.30;;;;;;;;;;4983339;28;20046;-43
2023/05/29 06:48:21;;;;;;;3.08;2.45;;;;;;;;;;4982794;28;20555;-49
2023/05/29 06:50:48;;;;;;;3.17;2.45;;;;;;;;;;4982208;28;20547;-49
2023/05/29 06:53:13;;;;;;;3.08;2.20;;;;;;;;;;4984990;28;20122;-47
2023/05/29 06:55:40;;;;;;;2.65;2.25;;;;;;;;;;4984870;28;20383;-52
2023/05/29 06:58:06;;;;;;;3.78;2.50;;;;;;;;;;4984410;28;20026;-47
2023/05/29 07:00:31;;;;;;;4.07;2.15;;;;;;;;;;4982233;28;20030;-52
2023/05/29 07:02:57;;;;;;;2.85;2.50;;;;;;;;;;4984298;28;20471;-48
2023/05/29 07:05:22;;;;;;;3.70;2.45;;;;;;;;;;4981127;28;20389;-50
2023/05/29 07:07:48;;;;;;;5.10;2.53;;;;;;;;;;4980329;28;20045;-51
2023/05/29 07:10:13;;;;;;;3.97;2.22;;;;;;;;;;4985024;28;20038;-53
2023/05/29 07:12:39;;;;;;;3.72;2.25;;;;;;;;;;4977563;28;20142;-46
2023/05/29 07:15:04;;;;;;;3.65;2.42;;;;;;;;;;4977708;28;20042;-43
2023/05/29 07:17:30;;;;;;;4.32;2.63;;;;;;;;;;4940777;28;1168402;-44
2023/05/29 07:19:56;;;;;;;2.55;2.35;;;;;;;;;;4980944;28;20074;-48
2023/05/29 07:22:21;;;;;;;2.90;2.00;;;;;;;;;;4983717;28;20514;-46
2023/05/29 07:24:46;;;;;;;2.53;2.10;;;;;;;;;;4982098;28;20365;-48
2023/05/29 07:27:12;;;;;;;5.10;2.10;;;;;;;;;;4982921;28;20046;-50
2023/05/29 07:29:37;;;;;;;2.42;2.22;;;;;;;;;;4979864;28;20162;-48
2023/05/29 07:32:03;;;;;;;3.08;1.92;;;;;;;;;;4982297;28;20057;-46
2023/05/29 07:34:28;;;;;;;2.40;2.20;;;;;;;;;;4986037;28;20065;-48
2023/05/29 07:37:01;;;;;;;4.82;2.30;;;;;;;;;;4983965;28;20572;-50
2023/05/29 07:39:27;;;;;;;5.82;2.50;;;;;;;;;;4985114;28;20022;-45
2023/05/29 07:41:52;;;;;;;3.78;2.35;;;;;;;;;;4984048;28;20026;-53
2023/05/29 07:44:18;;;;;;;2.75;2.30;;;;;;;;;;4984699;28;20031;-52
2023/05/29 07:46:43;;;;;;;5.30;2.78;;;;;;;;;;4983656;28;20038;-49
2023/05/29 07:49:09;;;;;;;3.67;2.40;;;;;;;;;;4984209;28;20033;-52
2023/05/29 07:51:34;;;;;;;7.72;2.75;;;;;;;;;;4982971;28;20078;-50
2023/05/29 07:54:00;;;;;;;5.57;2.72;;;;;;;;;;4982727;28;20052;-53
2023/05/29 07:56:25;;;;;;;6.70;3.20;;;;;;;;;;4981064;28;20043;-47
2023/05/29 07:58:53;;;;;;;3.45;2.40;;;;;;;;;;4984141;28;20480;-47
2023/05/29 08:01:19;;;;;;;7.15;2.60;;;;;;;;;;4984184;28;20055;-52
2023/05/29 08:03:44;;;;;;;5.90;2.80;;;;;;;;;;4986030;28;20032;-51
2023/05/29 08:06:10;;;;;;;7.13;3.13;;;;;;;;;;4980934;28;20047;-53
2023/05/29 08:08:35;;;;;;;6.40;3.13;;;;;;;;;;4984101;28;20023;-46
2023/05/29 08:11:00;;;;;;;3.83;2.88;;;;;;;;;;4982780;28;20055;-46
2023/05/29 08:13:27;;;;;;;7.00;2.63;;;;;;;;;;4982444;28;20395;-45
2023/05/29 08:15:52;;;;;;;5.75;2.63;;;;;;;;;;4982175;28;20050;-47
2023/05/29 08:18:17;;;;;;;8.02;2.35;;;;;;;;;;4983197;28;20121;-48
2023/05/29 08:20:44;;;;;;;7.65;2.70;;;;;;;;;;4981847;28;20042;-46
2023/05/29 08:23:10;;;;;;;8.02;2.80;;;;;;;;;;4984799;28;20034;-49
2023/05/29 08:25:35;;;;;;;3.03;2.70;;;;;;;;;;4983149;28;20030;-50
2023/05/29 08:28:01;;;;;;;2.80;2.50;;;;;;;;;;4982567;28;20029;-49
2023/05/29 08:30:26;;;;;;;14.68;2.65;;;;;;;;;;4981172;28;20022;-49
2023/05/29 08:32:51;;;;;;;6.93;3.45;;;;;;;;;;4983168;28;20054;-44
2023/05/29 08:35:17;;;;;;;4.43;3.53;;;;;;;;;;4981743;28;20035;-46
2023/05/29 08:37:43;;;;;;;3.40;2.70;;;;;;;;;;4984881;28;20045;-50
2023/05/29 08:40:09;;;;;;;5.00;3.25;;;;;;;;;;4983388;28;20097;-49
2023/05/29 08:42:42;;;;;;;3.30;3.00;;;;;;;;;;4980905;28;21041;-52
2023/05/29 08:45:13;;;;;;;4.85;3.55;;;;;;;;;;4979450;28;20134;-52
2023/05/29 08:47:40;;;;;;;9.23;3.28;;;;;;;;;;4983962;28;20042;-49
2023/05/29 08:50:07;;;;;;;6.95;2.97;;;;;;;;;;4978092;28;20546;-49
2023/05/29 08:52:37;;;;;;;4.50;2.88;;;;;;;;;;4984415;28;20061;-48
2023/05/29 08:55:03;;;;;;;4.57;2.83;;;;;;;;;;4984449;28;20035;-45
2023/05/29 08:57:30;;;;;;;6.50;3.05;;;;;;;;;;4983671;28;20053;-51
2023/05/29 08:59:56;;;;;;;3.65;3.03;;;;;;;;;;4983123;28;20073;-50
2023/05/29 09:02:22;;;;;;;6.70;3.75;;;;;;;;;;4983398;28;20046;-50
2023/05/29 09:04:52;;;;;;;4.25;3.13;;;;;;;;;;4982006;28;20026;-52
2023/05/29 09:07:19;;;;;;;6.47;3.33;;;;;;;;;;4984860;28;20109;-52
2023/05/29 09:09:47;;;;;;;3.92;2.97;;;;;;;;;;4982615;28;20165;-52
2023/05/29 09:12:14;;;;;;;4.60;3.35;;;;;;;;;;4982418;28;20100;-53
2023/05/29 09:14:42;;;;;;;7.13;3.22;;;;;;;;;;4976597;28;20030;-52
2023/05/29 09:17:08;;;;;;;5.60;3.03;;;;;;;;;;4980104;28;20046;-52
2023/05/29 09:19:35;;;;;;;4.90;2.97;;;;;;;;;;4982385;28;20041;-50
2023/05/29 09:22:15;;;;;;;4.85;2.85;;;;;;;;;;4982896;28;20084;-51
2023/05/29 09:24:42;;;;;;;2.92;2.63;;;;;;;;;;4981947;28;20387;-50
2023/05/29 09:27:11;;;;;;;7.22;2.50;;;;;;;;;;4982595;28;20492;-51
2023/05/29 09:29:45;;;;;;;9.93;3.00;;;;;;;;;;4983591;28;20049;-52
2023/05/29 09:32:16;;;;;;;9.45;2.60;;;;;;;;;;4981385;28;20858;-52
2023/05/29 09:34:43;;;;;;;4.65;2.97;;;;;;;;;;4980956;28;20365;-50
2023/05/29 09:37:09;;;;;;;10.32;2.80;;;;;;;;;;4983281;28;20454;-47
2023/05/29 09:39:45;;;;;;;5.30;2.63;;;;;;;;;;4982359;28;20040;-52
2023/05/29 09:42:11;;;;;;;4.70;2.67;;;;;;;;;;4981749;28;20531;-50
2023/05/29 09:44:36;;;;;;;5.40;2.65;;;;;;;;;;4982288;28;20030;-48
2023/05/29 09:47:02;;;;;;;5.18;2.50;;;;;;;;;;4984575;28;20042;-51
2023/05/29 09:49:27;;;;;;;5.57;2.42;;;;;;;;;;4982761;28;20519;-52
2023/05/29 09:51:59;;;;;;;3.90;2.60;;;;;;;;;;4981490;28;20133;-51
2023/05/29 09:54:28;;;;;;;5.03;2.92;;;;;;;;;;4980625;28;20033;-54
2023/05/29 09:56:56;;;;;;;5.05;3.15;;;;;;;;;;4983264;28;20731;-50
2023/05/29 09:59:23;;;;;;;6.93;2.40;;;;;;;;;;4981863;28;20034;-48
2023/05/29 10:01:55;;;;;;;4.80;2.28;;;;;;;;;;4979707;28;20046;-47
2023/05/29 10:04:21;;;;;;;2.58;2.35;;;;;;;;;;4982005;28;20105;-49
2023/05/29 10:06:48;;;;;;;6.10;2.75;;;;;;;;;;4983199;28;20042;-48
2023/05/29 10:09:17;;;;;;;4.28;2.63;;;;;;;;;;4983942;28;20045;-52
2023/05/29 10:11:45;;;;;;;11.65;2.70;;;;;;;;;;4986800;28;20046;-49
2023/05/29 10:14:17;;;;;;;6.22;2.67;;;;;;;;;;4985411;28;20054;-49
2023/05/29 10:16:46;;;;;;;4.10;2.67;;;;;;;;;;4985836;28;20043;-52
2023/05/29 10:19:15;;;;;;;5.43;3.20;;;;;;;;;;4986509;28;20034;-48
2023/05/29 10:21:42;;;;;;;4.97;2.90;;;;;;;;;;4983158;28;20051;-51
2023/05/29 10:24:08;;;;;;;4.95;2.88;;;;;;;;;;4985801;28;20057;-49
2023/05/29 10:26:40;;;;;;;5.80;3.05;;;;;;;;;;4982069;28;20053;-53
2023/05/29 10:29:11;;;;;;;3.45;3.00;;;;;;;;;;4985781;28;20031;-49
2023/05/29 10:31:51;;;;;;;4.93;2.53;;;;;;;;;;4979204;28;20070;-49
2023/05/29 10:34:42;;;;;;;10.45;3.38;;;;;;;;;;4981900;28;20034;-48
2023/05/29 10:37:26;;;;;;;4.93;2.80;;;;;;;;;;4981048;28;20047;-47
2023/05/29 10:39:51;;;;;;;5.55;2.55;;;;;;;;;;4986482;28;20046;-47
2023/05/29 10:42:39;;;;;;;5.43;2.50;;;;;;;;;;4984084;28;20066;-49
2023/05/29 10:45:05;;;;;;;4.10;2.55;;;;;;;;;;4986054;28;20383;-46
2023/05/29 10:47:30;;;;;;;3.67;2.75;;;;;;;;;;4985424;28;20050;-51
2023/05/29 10:50:03;;;;;;;6.28;3.58;;;;;;;;;;4985429;28;20439;-52
2023/05/29 10:52:33;;;;;;;3.78;2.95;;;;;;;;;;4986324;28;20525;-50
2023/05/29 10:54:58;;;;;;;7.80;3.53;;;;;;;;;;4981657;28;20049;-47
2023/05/29 10:57:26;;;;;;;6.85;3.03;;;;;;;;;;4984699;28;20034;-48
2023/05/29 10:59:59;;;;;;;2.97;2.35;;;;;;;;;;4984837;28;20034;-50
2023/05/29 11:02:25;;;;;;;4.93;2.60;;;;;;;;;;4978814;28;20094;-51
2023/05/29 11:05:24;;;;;;;5.68;2.72;;;;;;;;;;4984059;28;20022;-48
2023/05/29 11:07:58;;;;;;;4.47;2.40;;;;;;;;;;4984140;28;20054;-49
2023/05/29 11:10:55;;;;;;;3.92;2.90;;;;;;;;;;4983204;28;20026;-50
2023/05/29 11:13:35;;;;;;;4.28;2.80;;;;;;;;;;4983355;28;20114;-51
2023/05/29 11:16:20;;;;;;;11.27;2.80;;;;;;;;;;4982496;28;20042;-53
2023/05/29 11:18:47;;;;;;;3.33;2.70;;;;;;;;;;4982596;28;20030;-49
2023/05/29 11:21:52;;;;;;;3.47;2.60;;;;;;;;;;4986245;28;20046;-50
2023/05/29 11:24:24;;;;;;;4.13;3.05;;;;;;;;;;4983113;28;20027;-47
2023/05/29 11:26:54;;;;;;;8.02;3.60;;;;;;;;;;4983412;28;20539;-48
2023/05/29 11:29:24;;;;;;;3.42;3.20;;;;;;;;;;4984559;28;20041;-50
2023/05/29 11:31:57;;;;;;;4.25;3.30;;;;;;;;;;4982357;28;20058;-48
2023/05/29 11:34:23;;;;;;;4.28;3.80;;;;;;;;;;4983038;28;20539;-51
2023/05/29 11:36:49;;;;;;;5.70;3.78;;;;;;;;;;4984900;28;20069;-54
2023/05/29 11:39:14;;;;;;;6.18;4.43;;;;;;;;;;4985473;28;20387;-53
2023/05/29 11:41:40;;;;;;;4.35;4.00;;;;;;;;;;4985327;28;20046;-51
2023/05/29 11:44:06;;;;;;;4.45;4.00;;;;;;;;;;4983065;28;20443;-50
2023/05/29 11:46:32;;;;;;;6.10;4.63;;;;;;;;;;4981084;28;20049;-52
2023/05/29 11:49:01;;;;;;;7.00;3.92;;;;;;;;;;4984655;28;24219;-53
2023/05/29 11:51:27;;;;;;;4.78;4.38;;;;;;;;;;4981681;28;20096;-52
2023/05/29 11:53:57;;;;;;;4.35;3.95;;;;;;;;;;4988767;28;20045;-53
2023/05/29 11:56:32;;;;;;;5.13;4.30;;;;;;;;;;4983080;28;20057;-50
2023/05/29 11:58:59;;;;;;;6.75;3.95;;;;;;;;;;4983111;28;20093;-52
2023/05/29 12:01:26;;;;;;;6.78;4.18;;;;;;;;;;4978907;28;20096;-52
2023/05/29 12:03:52;;;;;;;13.38;4.30;;;;;;;;;;4987081;28;20058;-45
2023/05/29 12:06:34;;;;;;;6.07;4.60;;;;;;;;;;4982728;28;20047;-48
2023/05/29 12:09:00;;;;;;;;;;;;;;;;;;4985949;28;20022;-44
2023/05/29 12:11:26;;;;;;;4.82;4.22;;;;;;;;;;4985292;28;19928;-49
2023/05/29 12:14:02;;;;;;;6.63;4.13;;;;;;;;;;4982205;28;20385;-51
2023/05/29 12:16:33;;;;;;;5.00;4.40;;;;;;;;;;4982703;28;20050;-45
2023/05/29 12:18:59;;;;;;;7.55;4.45;;;;;;;;;;4985677;28;20034;-47
2023/05/29 12:21:26;;;;;;;8.07;4.22;;;;;;;;;;4982356;28;20412;-44
2023/05/29 12:23:53;;;;;;;4.55;4.15;;;;;;;;;;4984255;28;20034;-47
2023/05/29 12:26:22;;;;;;;6.90;4.45;;;;;;;;;;4980419;28;20050;-44
2023/05/29 12:28:48;;;;;;;6.25;4.13;;;;;;;;;;4983545;28;20034;-49
2023/05/29 12:31:26;;;;;;;5.63;4.53;;;;;;;;;;4981213;28;20031;-45
2023/05/29 12:33:51;;;;;;;5.50;4.28;;;;;;;;;;4981137;28;20037;-43
2023/05/29 12:36:16;;;;;;;5.43;4.22;;;;;;;;;;4983402;28;20042;-49
2023/05/29 12:38:50;;;;;;;7.50;4.20;;;;;;;;;;4987894;28;20057;-47
2023/05/29 12:41:30;;;;;;;5.43;4.13;;;;;;;;;;4983731;28;20065;-48
2023/05/29 12:43:56;;;;;;;4.43;4.03;;;;;;;;;;4982095;28;20030;-47
2023/05/29 12:46:25;;;;;;;4.47;4.07;;;;;;;;;;4985897;28;20046;-44
2023/05/29 12:48:53;;;;;;;4.60;3.92;;;;;;;;;;4980566;28;20547;-48
2023/05/29 12:51:23;;;;;;;6.72;3.97;;;;;;;;;;4986071;28;20052;-46
2023/05/29 12:53:49;;;;;;;7.88;4.82;;;;;;;;;;4984384;28;20034;-44
2023/05/29 12:56:14;;;;;;;5.50;4.40;;;;;;;;;;4982865;28;20051;-46
2023/05/29 12:58:39;;;;;;;4.93;4.50;;;;;;;;;;4980239;28;20026;-45
2023/05/29 13:01:11;;;;;;;4.32;4.00;;;;;;;;;;4980474;28;20034;-51
2023/05/29 13:03:37;;;;;;;6.50;4.57;;;;;;;;;;4981581;28;20092;-45
2023/05/29 13:06:02;;;;;;;6.13;4.38;;;;;;;;;;4984446;28;20496;-45
2023/05/29 13:08:28;;;;;;;4.55;4.15;;;;;;;;;;4983972;28;20380;-47
2023/05/29 13:10:53;;;;;;;6.20;4.43;;;;;;;;;;4983881;28;20145;-47
2023/05/29 13:13:20;;;;;;;7.28;4.38;;;;;;;;;;4983416;28;20041;-51
2023/05/29 13:15:45;;;;;;;5.57;4.60;;;;;;;;;;4982563;28;20046;-44
2023/05/29 13:18:10;;;;;;;6.03;4.95;;;;;;;;;;4978796;28;20113;-44
2023/05/29 13:20:36;;;;;;;4.65;4.25;;;;;;;;;;4976693;28;20037;-45
2023/05/29 13:23:01;;;;;;;7.95;4.40;;;;;;;;;;4979473;28;20035;-46
2023/05/29 13:25:28;;;;;;;5.30;4.75;;;;;;;;;;4982693;28;20040;-45
2023/05/29 13:27:53;;;;;;;6.22;4.07;;;;;;;;;;4974239;28;20041;-47
2023/05/29 13:30:19;;;;;;;6.82;4.18;;;;;;;;;;4978433;28;20035;-46
2023/05/29 13:32:44;;;;;;;5.57;4.65;;;;;;;;;;4978322;28;20448;-45
2023/05/29 13:35:10;;;;;;;5.05;4.55;;;;;;;;;;4983263;28;20042;-49
2023/05/29 13:37:36;;;;;;;7.40;4.20;;;;;;;;;;4978092;28;20054;-51
2023/05/29 13:40:03;;;;;;;9.35;4.82;;;;;;;;;;4977166;28;20106;-45
2023/05/29 13:42:29;;;;;;;7.50;4.68;;;;;;;;;;4974314;28;20047;-50
2023/05/29 13:44:54;;;;;;;6.50;4.15;;;;;;;;;;4975378;28;20034;-50
2023/05/29 13:47:19;;;;;;;8.00;4.45;;;;;;;;;;4980053;28;20518;-48
2023/05/29 13:49:45;;;;;;;4.72;4.22;;;;;;;;;;4976420;28;20740;-46
2023/05/29 13:52:10;;;;;;;7.82;4.55;;;;;;;;;;4976396;28;20128;-44
2023/05/29 13:54:36;;;;;;;14.60;6.32;;;;;;;;;;4977149;28;20042;-50
2023/05/29 13:57:06;;;;;;;5.68;4.43;;;;;;;;;;4980325;28;20126;-47
2023/05/29 13:59:33;;;;;;;6.72;3.88;;;;;;;;;;4986136;28;20031;-49
2023/05/29 14:01:59;;;;;;;7.80;4.28;;;;;;;;;;4977238;28;20595;-46
2023/05/29 14:04:25;;;;;;;3.85;3.55;;;;;;;;;;4981209;28;20121;-47
2023/05/29 14:06:51;;;;;;;5.13;3.60;;;;;;;;;;4978512;28;20042;-49
2023/05/29 14:09:22;;;;;;;5.28;3.75;;;;;;;;;;5011485;28;20031;-44
2023/05/29 14:11:47;;;;;;;4.53;3.22;;;;;;;;;;4981774;28;20045;-48
2023/05/29 14:14:13;;;;;;;6.18;3.65;;;;;;;;;;4973029;28;20043;-49
2023/05/29 14:16:38;;;;;;;4.72;3.90;;;;;;;;;;4980685;28;20530;-44
2023/05/29 14:19:03;;;;;;;4.57;3.58;;;;;;;;;;4978187;28;20031;-48
2023/05/29 14:21:29;;;;;;;5.03;3.45;;;;;;;;;;4979033;28;20043;-48
2023/05/29 14:23:54;;;;;;;3.75;3.13;;;;;;;;;;4975924;28;20431;-50
2023/05/29 14:26:20;;;;;;;4.65;3.10;;;;;;;;;;4978506;28;20133;-48
2023/05/29 14:28:45;;;;;;;3.97;3.15;;;;;;;;;;4981502;28;20102;-44
2023/05/29 14:31:10;;;;;;;6.25;3.78;;;;;;;;;;4976998;28;20042;-47
2023/05/29 14:33:39;;;;;;;8.40;3.45;;;;;;;;;;4974209;28;20086;-46
2023/05/29 14:36:04;;;;;;;4.00;3.53;;;;;;;;;;4973934;28;20061;-48
2023/05/29 14:38:29;;;;;;;3.97;3.40;;;;;;;;;;4979312;28;20357;-45
2023/05/29 14:40:55;;;;;;;3.65;3.17;;;;;;;;;;4983372;28;20406;-46
2023/05/29 14:43:21;;;;;;;4.47;3.25;;;;;;;;;;4980385;28;20026;-47